createdAt,value
2023-05-04T00:01:02.548Z,100035.25
2023-05-04T00:03:30.606Z,100035.84
2023-05-04T00:05:58.757Z,100036.95
2023-05-04T00:08:26.624Z,100032.46
2023-05-04T00:10:55.895Z,100029.73
2023-05-04T00:13:24.545Z,100032.41
2023-05-04T00:15:52.706Z,100030.90
2023-05-04T00:18:20.671Z,100026.07
2023-05-04T00:20:48.604Z,100021.07
2023-05-04T00:23:16.550Z,100016.59
2023-05-04T00:25:44.495Z,100015.25
2023-05-04T00:28:12.559Z,100015.31
2023-05-04T00:30:40.527Z,100013.63
2023-05-04T00:33:08.573Z,100014.73
2023-05-04T00:35:37.072Z,100011.30
2023-05-04T00:38:05.631Z,100007.15
2023-05-04T00:40:35.308Z,100004.23
2023-05-04T00:43:03.504Z,100003.40
2023-05-04T00:45:32.182Z,100003.82
2023-05-04T00:48:00.842Z,100003.70
2023-05-04T00:50:29.229Z,100005.67
2023-05-04T00:53:01.498Z,100012.55
2023-05-04T00:55:29.578Z,100010.86
2023-05-04T00:57:57.599Z,100011.27
2023-05-04T01:00:25.895Z,100013.61
2023-05-04T01:02:53.914Z,100013.67
2023-05-04T01:05:27.239Z,100013.73
2023-05-04T01:08:08.588Z,100016.22
2023-05-04T01:10:36.608Z,100016.27
2023-05-04T01:13:08.695Z,100019.27
2023-05-04T01:15:37.257Z,100017.89
2023-05-04T01:18:05.866Z,100020.55
2023-05-04T01:20:34.977Z,100020.56
2023-05-04T01:23:04.048Z,100021.64
2023-05-04T01:25:36.262Z,100021.67
2023-05-04T01:28:10.315Z,100024.48
2023-05-04T01:30:44.900Z,100024.51
2023-05-04T01:33:14.038Z,100025.94
2023-05-04T01:35:42.597Z,100026.70
2023-05-04T01:38:10.647Z,100027.97
2023-05-04T01:40:40.932Z,100031.02
2023-05-04T01:43:08.822Z,100027.77
2023-05-04T01:45:36.784Z,100028.84
2023-05-04T01:48:05.176Z,100027.31
2023-05-04T01:50:33.346Z,100026.80
2023-05-04T01:53:01.234Z,100026.14
2023-05-04T01:55:29.161Z,100024.09
2023-05-04T01:57:57.138Z,100023.77
2023-05-04T02:00:25.221Z,100023.63
2023-05-04T02:02:53.210Z,100022.48
2023-05-04T02:05:21.377Z,100020.97
2023-05-04T02:07:49.752Z,100020.12
2023-05-04T02:10:17.722Z,100019.42
2023-05-04T02:12:46.448Z,100020.48
2023-05-04T02:15:14.596Z,100017.04
2023-05-04T02:17:42.532Z,100015.86
2023-05-04T02:20:10.864Z,100019.40
2023-05-04T02:22:39.364Z,100019.05
2023-05-04T02:25:08.155Z,100018.52
2023-05-04T02:27:38.075Z,100011.05
2023-05-04T02:30:07.532Z,100009.15
2023-05-04T02:32:36.487Z,100009.67
2023-05-04T02:35:05.219Z,100011.09
2023-05-04T02:37:33.145Z,100012.83
2023-05-04T02:40:01.061Z,100009.54
2023-05-04T02:42:30.556Z,100009.73
2023-05-04T02:44:58.447Z,100008.88
2023-05-04T02:47:26.451Z,100009.08
2023-05-04T02:49:54.642Z,100010.16
2023-05-04T02:52:22.530Z,100006.19
2023-05-04T02:54:52.946Z,100005.54
2023-05-04T02:57:21.198Z,100004.03
2023-05-04T02:59:49.076Z,100007.04
2023-05-04T03:02:16.985Z,100006.40
2023-05-04T03:04:44.913Z,100005.88
2023-05-04T03:07:13.593Z,100007.48
2023-05-04T03:09:41.516Z,100007.50
2023-05-04T03:12:09.425Z,100011.71
2023-05-04T03:14:37.324Z,100009.65
2023-05-04T03:17:05.332Z,100010.36
2023-05-04T03:19:33.711Z,100008.63
2023-05-04T03:22:01.666Z,100014.39
2023-05-04T03:24:29.605Z,100013.00
2023-05-04T03:26:57.722Z,100013.34
2023-05-04T03:29:26.381Z,100011.42
2023-05-04T03:31:54.846Z,100008.27
2023-05-04T03:34:22.884Z,100011.23
2023-05-04T03:36:54.085Z,100012.56
2023-05-04T03:39:22.045Z,100014.21
2023-05-04T03:41:50.031Z,100017.23
2023-05-04T03:44:18.830Z,100017.95
2023-05-04T03:46:47.033Z,100021.96
2023-05-04T03:49:15.252Z,100023.09
2023-05-04T03:51:43.681Z,100027.29
2023-05-04T03:54:12.343Z,100027.41
2023-05-04T03:56:40.382Z,100025.95
2023-05-04T03:59:09.592Z,100018.92
2023-05-04T04:01:38.128Z,100021.69
2023-05-04T04:04:06.162Z,100020.89
2023-05-04T04:06:34.299Z,100018.73
2023-05-04T04:09:02.223Z,100018.02
2023-05-04T04:11:31.560Z,100015.80
2023-05-04T04:13:59.580Z,100013.69
2023-05-04T04:16:27.647Z,100011.05
2023-05-04T04:18:55.770Z,100009.89
2023-05-04T04:21:23.755Z,100005.29
2023-05-04T04:23:51.678Z,100005.42
2023-05-04T04:26:20.738Z,100008.79
2023-05-04T04:28:51.043Z,100006.60
2023-05-04T04:31:19.781Z,100005.29
2023-05-04T04:33:50.417Z,100004.17
2023-05-04T04:36:19.000Z,100000.14
2023-05-04T04:38:47.675Z,100002.39
2023-05-04T04:41:16.531Z,100004.88
2023-05-04T04:43:44.606Z,100006.86
2023-05-04T04:46:12.720Z,100003.13
2023-05-04T04:48:40.702Z,99999.77
2023-05-04T04:51:12.268Z,99997.08
2023-05-04T04:53:40.497Z,99996.67
2023-05-04T04:56:09.716Z,99999.15
2023-05-04T04:58:37.720Z,99999.71
2023-05-04T05:01:05.800Z,99996.98
2023-05-04T05:03:33.975Z,99994.90
2023-05-04T05:06:02.732Z,99995.53
2023-05-04T05:08:32.934Z,99993.64
2023-05-04T05:11:00.887Z,99993.40
2023-05-04T05:13:28.785Z,99992.33
2023-05-04T05:15:56.788Z,99996.55
2023-05-04T05:18:24.821Z,99997.57
2023-05-04T05:20:52.736Z,99994.31
2023-05-04T05:23:20.821Z,99997.77
2023-05-04T05:25:48.823Z,99999.41
2023-05-04T05:28:17.535Z,99996.84
2023-05-04T05:30:45.590Z,99992.98
2023-05-04T05:33:14.005Z,99990.02
2023-05-04T05:35:42.170Z,99995.13
2023-05-04T05:38:10.247Z,99998.08
2023-05-04T05:40:38.249Z,100002.25
2023-05-04T05:43:06.648Z,100001.34
2023-05-04T05:45:34.606Z,99996.98
2023-05-04T05:48:02.691Z,99995.12
2023-05-04T05:50:30.634Z,99997.19
2023-05-04T05:52:58.485Z,99994.17
2023-05-04T05:55:26.401Z,99994.92
2023-05-04T05:57:54.313Z,99993.09
2023-05-04T06:00:22.306Z,99993.16
2023-05-04T06:02:51.200Z,99994.83
2023-05-04T06:05:19.121Z,99997.27
2023-05-04T06:07:47.105Z,99995.52
2023-05-04T06:10:15.326Z,99994.55
2023-05-04T06:12:43.278Z,99993.19
2023-05-04T06:15:12.056Z,99990.62
2023-05-04T06:17:40.305Z,99991.17
2023-05-04T06:20:09.257Z,99993.92
2023-05-04T06:22:37.363Z,99994.73
2023-05-04T06:25:08.085Z,99995.51
2023-05-04T06:27:36.771Z,99988.37
2023-05-04T06:30:05.842Z,99986.82
2023-05-04T06:32:34.561Z,99988.71
2023-05-04T06:35:02.827Z,99990.34
2023-05-04T06:37:31.137Z,99989.39
2023-05-04T06:39:59.051Z,99989.77
2023-05-04T06:42:31.702Z,99989.67
2023-05-04T06:44:59.710Z,99991.89
2023-05-04T06:47:27.759Z,99994.24
2023-05-04T06:49:55.647Z,99990.44
2023-05-04T06:52:23.663Z,99992.55
2023-05-04T06:54:51.706Z,99991.90
2023-05-04T06:57:19.598Z,99989.33
2023-05-04T06:59:47.430Z,99990.76
2023-05-04T07:02:16.865Z,99990.95
2023-05-04T07:04:44.843Z,99990.94
2023-05-04T07:07:12.729Z,99991.50
2023-05-04T07:09:41.854Z,99992.84
2023-05-04T07:12:09.865Z,99991.91
2023-05-04T07:14:38.048Z,99992.10
2023-05-04T07:17:05.981Z,99987.35
2023-05-04T07:19:33.865Z,99984.43
2023-05-04T07:22:01.799Z,99983.80
2023-05-04T07:24:30.615Z,99982.84
2023-05-04T07:26:58.467Z,99977.90
2023-05-04T07:29:26.494Z,99977.52
2023-05-04T07:31:54.419Z,99978.35
2023-05-04T07:34:30.568Z,99981.86
2023-05-04T07:37:06.068Z,99977.70
2023-05-04T07:39:36.886Z,99981.73
2023-05-04T07:42:05.820Z,99984.39
2023-05-04T07:44:33.977Z,99986.13
2023-05-04T07:47:02.042Z,99983.88
2023-05-04T07:49:30.027Z,99981.77
2023-05-04T07:51:58.367Z,99981.98
2023-05-04T07:54:26.386Z,99981.48
2023-05-04T07:56:54.319Z,99983.25
2023-05-04T07:59:22.215Z,99981.39
2023-05-04T08:01:50.195Z,99981.81
2023-05-04T08:04:18.107Z,99978.08
2023-05-04T08:06:46.577Z,99974.11
2023-05-04T08:09:14.586Z,99978.40
2023-05-04T08:11:42.659Z,99978.28
2023-05-04T08:14:10.730Z,99975.85
2023-05-04T08:16:39.937Z,99976.11
2023-05-04T08:19:08.138Z,99974.20
2023-05-04T08:21:36.142Z,99974.25
2023-05-04T08:24:04.371Z,99976.12
2023-05-04T08:26:32.307Z,99978.81
2023-05-04T08:29:08.397Z,99975.77
2023-05-04T08:31:37.242Z,99970.11
2023-05-04T08:34:05.630Z,99969.77
2023-05-04T08:36:33.583Z,99968.88
2023-05-04T08:39:01.570Z,99963.46
2023-05-04T08:41:30.654Z,99964.08
2023-05-04T08:43:59.714Z,99963.83
2023-05-04T08:46:31.508Z,99966.61
2023-05-04T08:48:59.623Z,99966.92
2023-05-04T08:51:28.580Z,99961.80
2023-05-04T08:53:57.629Z,99957.27
2023-05-04T08:56:26.062Z,99958.95
2023-05-04T08:58:58.054Z,99951.70
2023-05-04T09:01:26.556Z,99954.14
2023-05-04T09:03:54.836Z,99954.75
2023-05-04T09:06:24.238Z,99953.36
2023-05-04T09:08:52.168Z,99949.55
2023-05-04T09:11:20.187Z,99950.67
2023-05-04T09:13:48.252Z,99948.16
2023-05-04T09:16:16.419Z,99948.70
2023-05-04T09:18:45.176Z,99950.95
2023-05-04T09:21:13.353Z,99941.50
2023-05-04T09:23:49.683Z,99938.67
2023-05-04T09:26:30.861Z,99940.84
2023-05-04T09:29:15.514Z,99941.77
2023-05-04T09:31:44.428Z,99937.86
2023-05-04T09:34:13.993Z,99937.86
2023-05-04T09:36:44.883Z,99935.36
2023-05-04T09:39:14.232Z,99936.60
2023-05-04T09:41:43.453Z,99932.17
2023-05-04T09:44:18.953Z,99933.98
2023-05-04T09:46:58.515Z,99926.19
2023-05-04T09:49:34.734Z,99924.52
2023-05-04T09:52:05.263Z,99925.38
2023-05-04T09:54:35.394Z,99930.90
2023-05-04T09:57:14.172Z,99928.73
2023-05-04T09:59:42.380Z,99933.48
2023-05-04T10:02:22.724Z,99929.66
2023-05-04T10:04:52.253Z,99921.35
2023-05-04T10:07:21.071Z,99919.09
2023-05-04T10:09:50.343Z,99922.88
2023-05-04T10:12:18.553Z,99917.10
2023-05-04T10:14:47.277Z,99911.21
2023-05-04T10:17:28.258Z,99909.14
2023-05-04T10:20:14.845Z,99907.06
2023-05-04T10:22:52.017Z,99902.13
2023-05-04T10:25:52.478Z,99901.70
2023-05-04T10:28:53.792Z,99896.32
2023-05-04T10:31:21.990Z,99895.92
2023-05-04T10:33:50.094Z,99888.11
2023-05-04T10:36:18.395Z,99885.05
2023-05-04T10:38:46.492Z,99879.99
2023-05-04T10:41:16.814Z,99878.20
2023-05-04T10:43:53.503Z,99873.04
2023-05-04T10:46:23.243Z,99872.19
2023-05-04T10:48:51.646Z,99865.95
2023-05-04T10:51:26.583Z,99866.15
2023-05-04T10:54:01.351Z,99864.06
2023-05-04T10:56:29.391Z,99861.27
2023-05-04T10:59:08.091Z,99855.23
2023-05-04T11:01:44.806Z,99854.13
2023-05-04T11:04:22.726Z,99852.11
2023-05-04T11:07:08.399Z,99848.36
2023-05-04T11:09:39.065Z,99847.91
2023-05-04T11:12:10.536Z,99846.13
2023-05-04T11:14:42.717Z,99844.55
2023-05-04T11:17:27.471Z,99840.55
2023-05-04T11:19:56.705Z,99836.74
2023-05-04T11:22:24.743Z,99835.48
2023-05-04T11:24:54.349Z,99835.80
2023-05-04T11:27:26.065Z,99834.27
2023-05-04T11:30:01.714Z,99827.10
2023-05-04T11:32:38.029Z,99821.64
2023-05-04T11:35:15.112Z,99819.88
2023-05-04T11:37:44.847Z,99821.38
2023-05-04T11:40:18.260Z,99816.52
2023-05-04T11:42:47.333Z,99815.66
2023-05-04T11:45:19.826Z,99813.10
2023-05-04T11:47:49.157Z,99807.02
2023-05-04T11:50:20.805Z,99806.06
2023-05-04T11:52:49.357Z,99801.98
2023-05-04T11:55:28.348Z,99800.83
2023-05-04T11:58:23.329Z,99799.57
2023-05-04T12:00:56.109Z,99795.62
2023-05-04T12:03:39.879Z,99793.82
2023-05-04T12:06:16.525Z,99793.96
2023-05-04T12:08:44.509Z,99790.13
2023-05-04T12:11:26.152Z,99789.95
2023-05-04T12:14:03.608Z,99783.77
2023-05-04T12:16:31.721Z,99783.71
2023-05-04T12:19:06.818Z,99780.02
2023-05-04T12:21:36.186Z,99777.84
2023-05-04T12:24:05.209Z,99779.66
2023-05-04T12:26:33.398Z,99778.33
2023-05-04T12:29:01.465Z,99774.52
2023-05-04T12:31:30.417Z,99780.26
2023-05-04T12:33:58.529Z,99771.02
2023-05-04T12:36:26.996Z,99770.44
2023-05-04T12:38:54.871Z,99771.34
2023-05-04T12:41:23.375Z,99770.05
2023-05-04T12:43:51.351Z,99767.02
2023-05-04T12:46:21.607Z,99763.18
2023-05-04T12:48:49.626Z,99763.96
2023-05-04T12:51:17.597Z,99760.27
2023-05-04T12:53:45.632Z,99758.27
2023-05-04T12:56:13.998Z,99752.35
2023-05-04T12:58:41.961Z,99749.92
2023-05-04T13:01:10.080Z,99752.16
2023-05-04T13:03:38.080Z,99748.17
2023-05-04T13:06:06.435Z,99743.54
2023-05-04T13:08:34.358Z,99739.36
2023-05-04T13:11:02.314Z,99733.67
2023-05-04T13:13:30.919Z,99731.63
2023-05-04T13:15:59.056Z,99728.84
2023-05-04T13:18:27.959Z,99725.67
2023-05-04T13:20:56.860Z,99724.02
2023-05-04T13:23:24.850Z,99722.23
2023-05-04T13:25:52.898Z,99722.73
2023-05-04T13:28:20.879Z,99718.41
2023-05-04T13:30:48.849Z,99720.55
2023-05-04T13:33:28.167Z,99715.70
2023-05-04T13:35:58.896Z,99708.96
2023-05-04T13:38:27.234Z,99709.38
2023-05-04T13:40:56.204Z,99708.20
2023-05-04T13:43:24.883Z,99705.96
2023-05-04T13:45:52.873Z,99699.63
2023-05-04T13:48:21.079Z,99694.73
2023-05-04T13:50:49.008Z,99689.14
2023-05-04T13:53:16.913Z,99685.83
2023-05-04T13:55:44.930Z,99685.45
2023-05-04T13:58:12.982Z,99685.20
2023-05-04T14:00:41.248Z,99680.80
2023-05-04T14:03:09.311Z,99676.14
2023-05-04T14:05:37.270Z,99672.31
2023-05-04T14:08:05.350Z,99666.86
2023-05-04T14:10:33.763Z,99667.09
2023-05-04T14:13:03.300Z,99664.14
2023-05-04T14:15:32.108Z,99663.02
2023-05-04T14:18:00.261Z,99658.14
2023-05-04T14:20:28.293Z,99663.18
2023-05-04T14:22:56.272Z,99657.77
2023-05-04T14:25:24.198Z,99658.50
2023-05-04T14:27:52.244Z,99658.88
2023-05-04T14:30:20.230Z,99658.64
2023-05-04T14:32:53.033Z,99653.11
2023-05-04T14:35:21.082Z,99645.52
2023-05-04T14:37:49.592Z,99643.39
2023-05-04T14:40:17.750Z,99638.38
2023-05-04T14:42:45.777Z,99638.27
2023-05-04T14:45:13.803Z,99634.86
2023-05-04T14:47:42.366Z,99635.17
2023-05-04T14:50:11.038Z,99633.48
2023-05-04T14:52:39.208Z,99629.80
2023-05-04T14:55:07.889Z,99628.12
2023-05-04T14:57:36.733Z,99626.90
2023-05-04T15:00:08.512Z,99625.42
2023-05-04T15:02:38.756Z,99631.60
2023-05-04T15:05:07.565Z,99629.90
2023-05-04T15:07:36.004Z,99628.38
2023-05-04T15:10:04.445Z,99625.09
2023-05-04T15:12:32.631Z,99625.48
2023-05-04T15:15:01.315Z,99623.70
2023-05-04T15:17:30.878Z,99621.41
2023-05-04T15:20:01.483Z,99619.03
2023-05-04T15:22:29.420Z,99617.63
2023-05-04T15:24:57.416Z,99618.35
2023-05-04T15:27:25.423Z,99614.91
2023-05-04T15:29:53.330Z,99607.93
2023-05-04T15:32:21.280Z,99606.33
2023-05-04T15:34:57.446Z,99607.51
2023-05-04T15:37:29.429Z,99603.77
2023-05-04T15:39:58.226Z,99602.11
2023-05-04T15:42:27.491Z,99598.67
2023-05-04T15:44:55.412Z,99593.25
2023-05-04T15:47:23.377Z,99597.65
2023-05-04T15:49:52.446Z,99592.41
2023-05-04T15:52:20.545Z,99587.02
2023-05-04T15:54:48.449Z,99583.59
2023-05-04T15:57:16.849Z,99583.04
2023-05-04T15:59:47.615Z,99580.46
2023-05-04T16:02:16.082Z,99580.42
2023-05-04T16:04:44.161Z,99577.90
2023-05-04T16:07:12.016Z,99580.16
2023-05-04T16:09:39.994Z,99580.48
2023-05-04T16:12:08.155Z,99578.68
2023-05-04T16:14:36.213Z,99575.77
2023-05-04T16:17:04.265Z,99577.23
2023-05-04T16:19:32.303Z,99577.26
2023-05-04T16:22:00.238Z,99572.63
2023-05-04T16:45:14.865Z,99566.52
2023-05-04T16:47:43.943Z,99560.86
2023-05-04T16:50:13.307Z,99561.70
2023-05-04T16:52:41.494Z,99563.67
2023-05-04T16:55:12.113Z,99564.12
2023-05-04T16:57:40.558Z,99559.88
2023-05-04T17:00:09.416Z,99560.33
2023-05-04T17:02:38.056Z,99559.69
2023-05-04T17:05:10.625Z,99560.02
2023-05-04T17:07:43.564Z,99555.55
2023-05-04T17:10:12.669Z,99555.27
2023-05-04T17:12:42.278Z,99553.89
2023-05-04T17:15:11.197Z,99552.95
2023-05-04T17:17:39.211Z,99551.49
2023-05-04T17:20:09.287Z,99551.65
2023-05-04T17:22:37.669Z,99552.23
2023-05-04T17:25:06.072Z,99553.71
2023-05-04T17:27:35.251Z,99553.30
2023-05-04T17:30:04.248Z,99554.95
2023-05-04T17:32:32.459Z,99555.08
2023-05-04T17:35:08.419Z,99558.75
2023-05-04T17:37:44.243Z,99554.50
2023-05-04T17:40:13.009Z,99553.46
2023-05-04T17:42:41.054Z,99554.23
2023-05-04T17:45:09.430Z,99558.80
2023-05-04T17:47:37.496Z,99557.70
2023-05-04T17:50:05.958Z,99558.42
2023-05-04T17:52:34.249Z,99557.95
2023-05-04T17:55:02.216Z,99559.38
2023-05-04T17:57:30.283Z,99559.89
2023-05-04T17:59:58.239Z,99558.66
2023-05-04T18:02:26.420Z,99558.69
2023-05-04T18:04:54.433Z,99556.67
2023-05-04T18:07:22.491Z,99556.95
2023-05-04T18:09:50.902Z,99558.77
2023-05-04T18:12:18.972Z,99562.80
2023-05-04T18:14:46.893Z,99566.44
2023-05-04T18:17:15.140Z,99571.52
2023-05-04T18:19:43.135Z,99572.97
2023-05-04T18:22:11.200Z,99575.83
2023-05-04T18:24:39.158Z,99573.47
2023-05-04T18:27:07.084Z,99577.18
2023-05-04T18:29:35.093Z,99582.50
2023-05-04T18:32:08.002Z,99584.61
2023-05-04T18:34:37.127Z,99578.84
2023-05-04T18:37:05.254Z,99581.89
2023-05-04T18:39:33.276Z,99581.27
2023-05-04T18:42:01.925Z,99585.72
2023-05-04T18:44:29.974Z,99587.28
2023-05-04T18:46:59.377Z,99588.83
2023-05-04T18:49:27.445Z,99587.45
2023-05-04T18:51:55.449Z,99586.35
2023-05-04T18:54:23.420Z,99588.09
2023-05-04T18:56:51.344Z,99589.48
2023-05-04T18:59:19.309Z,99594.02
2023-05-04T19:01:50.210Z,99592.78
2023-05-04T19:04:18.122Z,99589.91
2023-05-04T19:06:47.703Z,99591.64
2023-05-04T19:09:16.259Z,99596.36
2023-05-04T19:11:44.816Z,99595.56
2023-05-04T19:14:13.551Z,99600.98
2023-05-04T19:16:41.676Z,99602.52
2023-05-04T19:19:09.917Z,99602.65
2023-05-04T19:21:38.052Z,99601.88
2023-05-04T19:24:07.147Z,99605.84
2023-05-04T19:26:35.092Z,99602.72
2023-05-04T19:29:03.463Z,99599.83
2023-05-04T19:31:31.461Z,99600.17
2023-05-04T19:33:59.702Z,99600.87
2023-05-04T19:36:27.724Z,99601.73
2023-05-04T19:38:55.962Z,99598.77
2023-05-04T19:41:23.981Z,99599.04
2023-05-04T19:43:52.290Z,99599.60
2023-05-04T19:46:20.772Z,99594.86
2023-05-04T19:48:48.787Z,99597.92
2023-05-04T19:51:17.870Z,99599.91
2023-05-04T19:53:46.042Z,99599.21
2023-05-04T19:56:14.105Z,99598.56
2023-05-04T19:58:42.127Z,99599.92
2023-05-04T20:01:10.759Z,99595.45
2023-05-04T20:03:38.785Z,99593.02
2023-05-04T20:06:07.386Z,99594.63
2023-05-04T20:08:35.382Z,99594.33
2023-05-04T20:11:03.359Z,99593.45
2023-05-04T20:13:31.313Z,99591.20
2023-05-04T20:15:59.289Z,99585.57
2023-05-04T20:18:27.433Z,99583.78
2023-05-04T20:20:56.359Z,99580.44
2023-05-04T20:23:24.319Z,99582.53
2023-05-04T20:25:52.307Z,99584.09
2023-05-04T20:28:21.255Z,99587.18
2023-05-04T20:30:50.131Z,99583.41
2023-05-04T20:33:18.034Z,99581.23
2023-05-04T20:35:46.042Z,99577.52
2023-05-04T20:38:14.334Z,99576.63
2023-05-04T20:40:42.238Z,99582.56
2023-05-04T20:43:11.492Z,99581.92
2023-05-04T20:45:39.447Z,99577.95
2023-05-04T20:48:07.448Z,99576.02
2023-05-04T20:50:35.486Z,99576.09
2023-05-04T20:53:03.445Z,99577.40
2023-05-04T20:55:31.504Z,99576.46
2023-05-04T20:57:59.426Z,99579.39
2023-05-04T21:00:27.430Z,99578.46
2023-05-04T21:02:55.447Z,99573.86
2023-05-04T21:05:23.549Z,99571.36
2023-05-04T21:07:54.786Z,99575.95
2023-05-04T21:10:22.809Z,99573.71
2023-05-04T21:12:50.841Z,99573.88
2023-05-04T21:15:18.920Z,99575.48
2023-05-04T21:17:49.922Z,99572.11
2023-05-04T21:20:18.070Z,99572.10
2023-05-04T21:22:46.330Z,99567.85
2023-05-04T21:25:14.389Z,99570.20
2023-05-04T21:27:44.246Z,99564.40
2023-05-04T21:30:12.636Z,99558.58
2023-05-04T21:32:40.715Z,99556.98
2023-05-04T21:35:08.976Z,99557.58
2023-05-04T21:37:37.313Z,99554.27
2023-05-04T21:40:06.258Z,99555.92
2023-05-04T21:42:34.537Z,99554.90
2023-05-04T21:45:02.442Z,99546.53
2023-05-04T21:47:30.611Z,99544.09
2023-05-04T21:49:58.544Z,99542.18
2023-05-04T21:52:26.756Z,99541.33
2023-05-04T21:54:54.720Z,99541.20
2023-05-04T21:57:22.635Z,99534.59
2023-05-04T21:59:50.606Z,99529.89
2023-05-04T22:02:18.640Z,99531.86
2023-05-04T22:04:46.594Z,99530.52
2023-05-04T22:07:15.635Z,99529.71
2023-05-04T22:09:43.748Z,99528.95
2023-05-04T22:12:11.757Z,99524.90
2023-05-04T22:14:42.206Z,99528.45
2023-05-04T22:17:10.498Z,99532.91
2023-05-04T22:19:38.586Z,99536.30
2023-05-04T22:22:06.528Z,99532.44
2023-05-04T22:24:34.491Z,99530.90
2023-05-04T22:27:03.482Z,99530.27
2023-05-04T22:29:34.748Z,99533.02
2023-05-04T22:32:02.910Z,99532.21
2023-05-04T22:34:30.993Z,99532.27
2023-05-04T22:36:58.841Z,99530.87
2023-05-04T22:39:26.849Z,99533.28
2023-05-04T22:41:54.720Z,99534.11
2023-05-04T22:44:22.827Z,99537.02
2023-05-04T22:46:50.708Z,99532.84
2023-05-04T22:49:18.737Z,99527.56
2023-05-04T22:51:46.721Z,99527.27
2023-05-04T22:54:14.796Z,99527.80
2023-05-04T22:56:42.763Z,99530.64
2023-05-04T22:59:10.742Z,99527.16
2023-05-04T23:01:43.301Z,99530.79
2023-05-04T23:04:11.651Z,99529.46
2023-05-04T23:06:39.622Z,99528.93
2023-05-04T23:09:07.777Z,99528.48
2023-05-04T23:11:35.781Z,99529.19
2023-05-04T23:14:03.811Z,99528.71
2023-05-04T23:16:32.184Z,99526.92
2023-05-04T23:19:00.286Z,99524.45
2023-05-04T23:21:28.212Z,99525.80
2023-05-04T23:23:56.284Z,99525.19
2023-05-04T23:26:24.266Z,99521.96
2023-05-04T23:28:52.226Z,99521.66
2023-05-04T23:31:20.577Z,99521.40
2023-05-04T23:33:48.670Z,99521.80
2023-05-04T23:36:16.770Z,99524.48
2023-05-04T23:38:44.692Z,99520.34
2023-05-04T23:41:12.647Z,99515.98
2023-05-04T23:43:40.659Z,99512.30
2023-05-04T23:46:08.621Z,99512.80
2023-05-04T23:48:36.594Z,99516.29
2023-05-04T23:51:04.918Z,99514.35
2023-05-04T23:53:36.758Z,99510.12
2023-05-04T23:56:06.269Z,99510.83
2023-05-04T23:58:35.150Z,99515.05
